createdAt,value
2019-02-09T00:00:29.425Z,2.92
2019-02-09T00:01:08.866Z,2.17
2019-02-09T00:01:46.921Z,2.45
2019-02-09T00:02:24.935Z,2.25
2019-02-09T00:03:02.367Z,2.30
2019-02-09T00:03:39.770Z,2.92
2019-02-09T00:04:17.127Z,2.45
2019-02-09T00:04:54.760Z,2.37
2019-02-09T00:05:32.690Z,2.77
2019-02-09T00:06:10.629Z,2.20
2019-02-09T00:06:48.368Z,2.10
2019-02-09T00:07:26.012Z,2.83
2019-02-09T00:08:03.674Z,2.58
2019-02-09T00:08:41.109Z,2.95
2019-02-09T00:09:19.055Z,2.55
2019-02-09T00:09:57.112Z,2.50
2019-02-09T00:10:35.212Z,2.08
2019-02-09T00:11:12.555Z,3.25
2019-02-09T00:11:50.100Z,3.00
2019-02-09T00:12:27.955Z,2.25
2019-02-09T00:13:05.820Z,2.60
2019-02-09T00:13:44.135Z,2.58
2019-02-09T00:14:21.946Z,2.42
2019-02-09T00:14:59.377Z,2.83
2019-02-09T00:15:37.616Z,2.22
2019-02-09T00:16:14.745Z,2.33
2019-02-09T00:16:52.339Z,2.05
2019-02-09T00:17:29.915Z,2.05
2019-02-09T00:18:07.935Z,2.55
2019-02-09T00:18:44.998Z,1.98
2019-02-09T00:19:22.774Z,2.50
2019-02-09T00:20:00.538Z,2.40
2019-02-09T00:20:38.017Z,2.50
2019-02-09T00:21:16.215Z,2.47
2019-02-09T00:21:54.074Z,2.40
2019-02-09T00:22:31.712Z,2.33
2019-02-09T00:23:09.850Z,2.35
2019-02-09T00:23:47.635Z,2.00
2019-02-09T00:24:25.371Z,2.80
2019-02-09T00:25:03.464Z,2.60
2019-02-09T00:25:41.308Z,1.92
2019-02-09T00:26:19.239Z,2.20
2019-02-09T00:26:57.001Z,2.58
2019-02-09T00:27:34.789Z,2.30
2019-02-09T00:28:12.679Z,2.45
2019-02-09T00:28:50.052Z,2.12
2019-02-09T00:29:27.329Z,2.30
2019-02-09T00:30:06.107Z,2.25
2019-02-09T00:30:44.602Z,2.37
2019-02-09T00:31:21.712Z,2.12
2019-02-09T00:31:59.185Z,2.55
2019-02-09T00:32:37.038Z,2.17
2019-02-09T00:33:14.458Z,2.70
2019-02-09T00:33:51.835Z,2.00
2019-02-09T00:34:29.436Z,2.22
2019-02-09T00:35:07.270Z,2.40
2019-02-09T00:35:45.317Z,2.10
2019-02-09T00:36:23.508Z,2.70
2019-02-09T00:37:01.305Z,2.90
2019-02-09T00:37:39.090Z,2.17
2019-02-09T00:38:16.231Z,2.02
2019-02-09T00:38:53.620Z,2.00
2019-02-09T00:39:31.823Z,2.10
2019-02-09T00:40:10.420Z,2.50
2019-02-09T00:40:48.624Z,2.30
2019-02-09T00:41:26.071Z,2.22
2019-02-09T00:42:03.448Z,2.10
2019-02-09T00:42:41.062Z,2.72
2019-02-09T00:43:18.518Z,2.33
2019-02-09T00:43:56.215Z,2.50
2019-02-09T00:44:34.007Z,2.65
2019-02-09T00:45:11.882Z,2.15
2019-02-09T00:45:49.035Z,2.00
2019-02-09T00:46:26.422Z,2.25
2019-02-09T00:47:04.434Z,1.95
2019-02-09T00:47:42.169Z,2.37
2019-02-09T00:48:19.874Z,2.27
2019-02-09T00:48:57.662Z,2.42
2019-02-09T00:49:35.506Z,2.17
2019-02-09T00:50:13.660Z,2.30
2019-02-09T00:50:51.118Z,2.40
2019-02-09T00:51:28.789Z,2.40
2019-02-09T00:52:06.518Z,2.30
2019-02-09T00:52:44.483Z,2.22
2019-02-09T00:53:21.828Z,2.20
2019-02-09T00:53:59.515Z,2.30
2019-02-09T00:54:37.552Z,3.08
2019-02-09T00:55:15.620Z,2.87
2019-02-09T00:55:52.969Z,2.58
2019-02-09T00:56:30.639Z,2.60
2019-02-09T00:57:08.275Z,2.40
2019-02-09T00:57:46.727Z,2.80
2019-02-09T00:58:24.575Z,3.02
2019-02-09T00:59:02.346Z,2.60
2019-02-09T00:59:40.206Z,2.42
2019-02-09T01:00:20.521Z,2.40
2019-02-09T01:00:58.482Z,2.00
2019-02-09T01:01:36.550Z,2.30
2019-02-09T01:02:14.002Z,2.95
2019-02-09T01:02:52.171Z,2.77
2019-02-09T01:03:29.938Z,2.55
2019-02-09T01:04:07.626Z,2.55
2019-02-09T01:04:45.170Z,2.90
2019-02-09T01:05:25.821Z,2.20
2019-02-09T01:06:03.946Z,2.37
2019-02-09T01:06:41.378Z,3.02
2019-02-09T01:07:18.132Z,2.60
2019-02-09T01:07:55.541Z,3.00
2019-02-09T01:08:34.880Z,2.87
2019-02-09T01:09:13.434Z,2.22
2019-02-09T01:09:51.476Z,3.08
2019-02-09T01:10:31.088Z,2.33
2019-02-09T01:11:09.150Z,2.65
2019-02-09T01:11:47.090Z,2.83
2019-02-09T01:12:24.780Z,2.62
2019-02-09T01:13:02.773Z,2.30
2019-02-09T01:13:40.530Z,2.12
2019-02-09T01:14:17.898Z,2.62
2019-02-09T01:14:55.332Z,2.77
2019-02-09T01:15:33.404Z,2.30
2019-02-09T01:16:11.228Z,2.90
2019-02-09T01:16:48.836Z,2.60
2019-02-09T01:17:26.219Z,2.60
2019-02-09T01:18:03.460Z,2.80
2019-02-09T01:18:41.608Z,2.62
2019-02-09T01:19:18.571Z,2.62
2019-02-09T01:19:56.390Z,2.65
2019-02-09T01:20:34.384Z,2.98
2019-02-09T01:21:12.420Z,2.80
2019-02-09T01:21:49.916Z,3.00
2019-02-09T01:22:27.539Z,2.80
2019-02-09T01:23:06.854Z,3.00
2019-02-09T01:23:44.288Z,2.92
2019-02-09T01:24:21.754Z,2.35
2019-02-09T01:24:58.594Z,2.83
2019-02-09T01:25:36.138Z,2.67
2019-02-09T01:26:14.017Z,3.22
2019-02-09T01:26:51.384Z,2.65
2019-02-09T01:27:29.496Z,2.75
2019-02-09T01:28:07.248Z,2.80
2019-02-09T01:28:44.252Z,2.55
2019-02-09T01:29:22.320Z,2.92
2019-02-09T01:30:02.427Z,2.80
2019-02-09T01:30:39.137Z,3.15
2019-02-09T01:31:16.602Z,3.05
2019-02-09T01:31:53.756Z,2.70
2019-02-09T01:32:31.476Z,3.00
2019-02-09T01:33:08.920Z,3.22
2019-02-09T01:33:46.302Z,2.98
2019-02-09T01:34:24.116Z,2.90
2019-02-09T01:35:01.456Z,3.10
2019-02-09T01:35:39.135Z,2.92
2019-02-09T01:36:16.940Z,3.12
2019-02-09T01:36:53.729Z,3.15
2019-02-09T01:37:31.323Z,3.10
2019-02-09T01:38:09.236Z,2.77
2019-02-09T01:38:46.636Z,3.02
2019-02-09T01:39:24.011Z,2.65
2019-02-09T01:40:01.692Z,2.87
2019-02-09T01:40:39.496Z,2.90
2019-02-09T01:41:17.611Z,3.08
2019-02-09T01:41:55.174Z,3.60
2019-02-09T01:42:32.564Z,3.22
2019-02-09T01:43:10.743Z,2.70
2019-02-09T01:43:48.671Z,3.20
2019-02-09T01:44:26.619Z,3.30
2019-02-09T01:45:05.136Z,3.37
2019-02-09T01:45:42.560Z,2.85
2019-02-09T01:46:20.503Z,3.00
2019-02-09T01:46:58.153Z,2.60
2019-02-09T01:47:36.290Z,2.85
2019-02-09T01:48:13.780Z,3.25
2019-02-09T01:48:51.432Z,3.62
2019-02-09T01:49:28.860Z,3.15
2019-02-09T01:50:08.598Z,2.87
2019-02-09T01:50:46.540Z,3.30
2019-02-09T01:51:24.625Z,3.37
2019-02-09T01:52:02.304Z,3.85
2019-02-09T01:52:39.358Z,3.10
2019-02-09T01:53:16.988Z,3.40
2019-02-09T01:53:54.795Z,3.47
2019-02-09T01:54:32.607Z,3.45
2019-02-09T01:55:10.976Z,3.05
2019-02-09T01:55:48.721Z,3.05
2019-02-09T01:56:26.688Z,2.98
2019-02-09T01:57:04.288Z,2.98
2019-02-09T01:57:42.068Z,3.47
2019-02-09T01:58:20.072Z,3.50
2019-02-09T01:58:57.346Z,3.17
2019-02-09T01:59:35.052Z,3.20
2019-02-09T02:00:18.336Z,3.25
2019-02-09T02:00:56.100Z,3.12
2019-02-09T02:01:33.106Z,3.00
2019-02-09T02:02:10.782Z,3.42
2019-02-09T02:02:49.118Z,2.98
2019-02-09T02:03:27.129Z,3.25
2019-02-09T02:04:05.579Z,3.08
2019-02-09T02:04:43.610Z,3.50
2019-02-09T02:05:22.735Z,3.58
2019-02-09T02:06:00.366Z,3.33
2019-02-09T02:06:38.034Z,3.55
2019-02-09T02:07:16.028Z,3.75
2019-02-09T02:07:53.613Z,3.50
2019-02-09T02:08:31.630Z,3.30
2019-02-09T02:09:09.622Z,3.27
2019-02-09T02:09:47.760Z,4.20
2019-02-09T02:10:27.516Z,3.20
2019-02-09T02:11:05.239Z,4.50
2019-02-09T02:11:42.869Z,3.22
2019-02-09T02:12:20.240Z,3.42
2019-02-09T02:12:58.656Z,3.15
2019-02-09T02:13:36.374Z,3.92
2019-02-09T02:14:14.101Z,3.85
2019-02-09T02:14:51.590Z,3.65
2019-02-09T02:15:29.936Z,3.60
2019-02-09T02:16:08.218Z,3.72
2019-02-09T02:16:46.294Z,3.95
2019-02-09T02:17:23.758Z,3.60
2019-02-09T02:18:01.656Z,4.12
2019-02-09T02:18:39.389Z,3.75
2019-02-09T02:19:16.928Z,3.75
2019-02-09T02:19:54.592Z,3.50
2019-02-09T02:20:32.345Z,3.33
2019-02-09T02:21:09.950Z,3.22
2019-02-09T02:21:48.087Z,3.25
2019-02-09T02:22:25.362Z,3.08
2019-02-09T02:23:03.036Z,3.40
2019-02-09T02:23:40.798Z,3.20
2019-02-09T02:24:18.704Z,3.55
2019-02-09T02:24:56.769Z,3.27
2019-02-09T02:25:34.588Z,3.52
2019-02-09T02:26:11.953Z,3.98
2019-02-09T02:26:49.805Z,3.22
2019-02-09T02:27:26.916Z,3.60
2019-02-09T02:28:05.009Z,3.30
2019-02-09T02:28:42.706Z,3.25
2019-02-09T02:29:20.108Z,3.67
2019-02-09T02:29:57.748Z,3.50
2019-02-09T02:30:37.135Z,3.35
2019-02-09T02:31:14.244Z,4.17
2019-02-09T02:31:52.352Z,3.58
2019-02-09T02:32:29.963Z,3.30
2019-02-09T02:33:08.114Z,4.33
2019-02-09T02:33:46.134Z,3.77
2019-02-09T02:34:23.618Z,3.58
2019-02-09T02:35:01.656Z,3.87
2019-02-09T02:35:40.017Z,4.62
2019-02-09T02:36:18.064Z,3.65
2019-02-09T02:36:55.744Z,3.72
2019-02-09T02:37:33.022Z,3.85
2019-02-09T02:38:10.838Z,4.12
2019-02-09T02:38:48.230Z,3.37
2019-02-09T02:39:25.265Z,3.35
2019-02-09T02:40:03.073Z,3.60
2019-02-09T02:40:41.160Z,4.30
2019-02-09T02:41:20.344Z,3.72
2019-02-09T02:41:58.376Z,3.70
2019-02-09T02:42:36.451Z,4.15
2019-02-09T02:43:14.457Z,3.37
2019-02-09T02:43:52.185Z,3.70
2019-02-09T02:44:29.846Z,3.42
2019-02-09T02:45:08.342Z,4.78
2019-02-09T02:45:46.080Z,4.15
2019-02-09T02:46:23.964Z,3.70
2019-02-09T02:47:01.962Z,3.85
2019-02-09T02:47:39.692Z,4.08
2019-02-09T02:48:18.245Z,3.90
2019-02-09T02:48:55.776Z,4.42
2019-02-09T02:49:33.722Z,4.00
2019-02-09T02:50:13.356Z,4.20
2019-02-09T02:50:51.128Z,4.03
2019-02-09T02:51:28.892Z,3.55
2019-02-09T02:52:06.805Z,3.77
2019-02-09T02:52:44.232Z,3.98
2019-02-09T02:53:21.916Z,3.80
2019-02-09T02:54:00.045Z,3.65
2019-02-09T02:54:38.104Z,3.70
2019-02-09T02:55:17.731Z,4.25
2019-02-09T02:55:55.880Z,3.77
2019-02-09T02:56:33.248Z,3.60
2019-02-09T02:57:11.261Z,3.60
2019-02-09T02:57:50.436Z,3.83
2019-02-09T02:58:27.784Z,3.60
2019-02-09T02:59:05.788Z,4.15
2019-02-09T02:59:43.566Z,4.10
2019-02-09T03:00:31.667Z,3.60
2019-02-09T03:01:02.906Z,3.92
2019-02-09T03:01:40.560Z,4.15
2019-02-09T03:02:17.982Z,4.03
2019-02-09T03:02:55.993Z,4.47
2019-02-09T03:03:33.816Z,3.50
2019-02-09T03:04:11.576Z,4.20
2019-02-09T03:04:49.082Z,4.22
2019-02-09T03:05:26.846Z,3.70
2019-02-09T03:06:04.795Z,4.95
2019-02-09T03:06:41.827Z,4.00
2019-02-09T03:07:27.012Z,3.62
2019-02-09T03:08:05.672Z,3.40
2019-02-09T03:08:42.700Z,4.15
2019-02-09T03:09:20.440Z,5.20
2019-02-09T03:09:58.224Z,3.50
2019-02-09T03:10:35.397Z,4.30
2019-02-09T03:11:13.176Z,4.12
2019-02-09T03:11:51.068Z,4.20
2019-02-09T03:12:28.451Z,4.05
2019-02-09T03:13:06.440Z,4.03
2019-02-09T03:13:43.709Z,4.40
2019-02-09T03:14:21.427Z,3.72
2019-02-09T03:14:59.059Z,3.30
2019-02-09T03:15:37.307Z,4.30
2019-02-09T03:16:14.852Z,4.75
2019-02-09T03:16:52.293Z,4.35
2019-02-09T03:17:29.808Z,3.67
2019-02-09T03:18:07.842Z,4.28
2019-02-09T03:18:45.282Z,3.70
2019-02-09T03:19:22.014Z,4.15
2019-02-09T03:19:59.620Z,4.33
2019-02-09T03:20:37.748Z,3.75
2019-02-09T03:21:15.296Z,3.92
2019-02-09T03:21:53.286Z,3.95
2019-02-09T03:22:30.618Z,4.50
2019-02-09T03:23:10.136Z,3.83
2019-02-09T03:23:47.773Z,3.87
2019-02-09T03:24:25.880Z,3.75
2019-02-09T03:25:03.560Z,3.60
2019-02-09T03:25:41.344Z,3.90
2019-02-09T03:26:19.340Z,3.70
2019-02-09T03:26:57.109Z,4.62
2019-02-09T03:27:35.112Z,3.95
2019-02-09T03:28:13.002Z,3.65
2019-02-09T03:28:50.872Z,3.92
2019-02-09T03:29:28.308Z,4.33
2019-02-09T03:30:07.604Z,3.92
2019-02-09T03:30:48.334Z,4.12
2019-02-09T03:31:23.972Z,4.87
2019-02-09T03:32:00.667Z,5.12
2019-02-09T03:32:38.774Z,3.58
2019-02-09T03:33:16.569Z,3.92
2019-02-09T03:33:54.556Z,3.67
2019-02-09T03:34:32.192Z,3.72
2019-02-09T03:35:10.384Z,4.20
2019-02-09T03:35:47.644Z,4.20
2019-02-09T03:36:25.752Z,4.45
2019-02-09T03:37:03.682Z,3.80
2019-02-09T03:37:41.106Z,3.47
2019-02-09T03:38:19.075Z,3.90
2019-02-09T03:38:56.573Z,3.95
2019-02-09T03:39:34.520Z,3.90
2019-02-09T03:40:14.379Z,4.20
2019-02-09T03:41:11.208Z,4.58
2019-02-09T03:41:48.968Z,4.25
2019-02-09T03:42:26.741Z,4.05
2019-02-09T03:43:04.339Z,3.40
2019-02-09T03:43:42.170Z,4.03
2019-02-09T03:44:19.991Z,3.50
2019-02-09T03:44:58.087Z,3.22
2019-02-09T03:45:35.670Z,4.17
2019-02-09T03:46:13.109Z,3.65
2019-02-09T03:46:51.220Z,3.30
2019-02-09T03:47:28.861Z,3.75
2019-02-09T03:48:07.107Z,3.75
2019-02-09T03:48:44.621Z,4.37
2019-02-09T03:49:22.740Z,3.85
2019-02-09T03:50:00.415Z,3.42
2019-02-09T03:50:38.002Z,3.50
2019-02-09T03:51:15.738Z,3.10
2019-02-09T03:51:53.115Z,3.92
2019-02-09T03:52:30.782Z,3.75
2019-02-09T03:53:08.563Z,3.40
2019-02-09T03:53:46.583Z,3.55
2019-02-09T03:54:24.428Z,4.22
2019-02-09T03:55:02.263Z,3.15
2019-02-09T03:55:39.692Z,3.72
2019-02-09T03:56:17.274Z,2.98
2019-02-09T03:56:53.933Z,3.37
2019-02-09T03:57:32.140Z,3.98
2019-02-09T03:58:09.200Z,3.37
2019-02-09T03:58:47.305Z,3.37
2019-02-09T03:59:25.017Z,3.20
2019-02-09T04:00:02.359Z,3.35
2019-02-09T04:00:40.035Z,3.62
2019-02-09T04:01:17.518Z,3.58
2019-02-09T04:01:55.872Z,3.10
2019-02-09T04:02:33.612Z,3.30
2019-02-09T04:03:11.482Z,3.42
2019-02-09T04:03:48.549Z,3.80
2019-02-09T04:04:25.930Z,3.25
2019-02-09T04:05:03.616Z,3.10
2019-02-09T04:05:41.512Z,4.10
2019-02-09T04:06:19.236Z,3.35
2019-02-09T04:06:57.278Z,3.12
2019-02-09T04:07:35.552Z,3.15
2019-02-09T04:08:13.484Z,3.80
2019-02-09T04:08:51.252Z,3.20
2019-02-09T04:09:28.331Z,3.60
2019-02-09T04:10:06.782Z,3.33
2019-02-09T04:10:44.514Z,3.20
2019-02-09T04:11:21.884Z,3.35
2019-02-09T04:11:59.440Z,3.40
2019-02-09T04:12:37.461Z,3.52
2019-02-09T04:13:15.354Z,3.10
2019-02-09T04:13:53.068Z,3.30
2019-02-09T04:14:31.233Z,3.65
2019-02-09T04:15:09.936Z,3.12
2019-02-09T04:15:47.406Z,3.50
2019-02-09T04:16:24.988Z,3.55
2019-02-09T04:17:01.622Z,3.65
2019-02-09T04:17:39.436Z,3.30
2019-02-09T04:18:17.149Z,3.27
2019-02-09T04:18:54.851Z,3.47
2019-02-09T04:19:32.284Z,2.90
2019-02-09T04:20:11.656Z,3.45
2019-02-09T04:20:49.600Z,4.00
2019-02-09T04:21:27.428Z,3.30
2019-02-09T04:22:04.917Z,3.45
2019-02-09T04:22:42.280Z,3.60
2019-02-09T04:23:20.018Z,3.37
2019-02-09T04:23:57.393Z,3.05
2019-02-09T04:24:34.785Z,3.67
2019-02-09T04:25:13.939Z,3.00
2019-02-09T04:25:51.758Z,3.30
2019-02-09T04:26:29.716Z,3.50
2019-02-09T04:27:07.934Z,3.60
2019-02-09T04:27:46.071Z,3.15
2019-02-09T04:28:23.709Z,3.15
2019-02-09T04:29:01.632Z,3.67
2019-02-09T04:29:39.645Z,3.25
2019-02-09T04:30:28.900Z,2.90
2019-02-09T04:31:07.032Z,3.67
2019-02-09T04:31:45.003Z,3.35
2019-02-09T04:32:25.813Z,3.12
2019-02-09T04:33:03.506Z,3.55
2019-02-09T04:33:40.867Z,3.20
2019-02-09T04:34:18.792Z,3.08
2019-02-09T04:34:56.181Z,3.02
2019-02-09T04:35:33.855Z,3.02
2019-02-09T04:36:11.299Z,3.20
2019-02-09T04:36:48.718Z,2.85
2019-02-09T04:37:26.726Z,3.50
2019-02-09T04:38:04.478Z,3.20
2019-02-09T04:38:42.491Z,3.30
2019-02-09T04:39:21.842Z,3.50
2019-02-09T04:39:59.406Z,3.33
2019-02-09T04:40:37.148Z,2.95
2019-02-09T04:41:14.825Z,3.33
2019-02-09T04:41:52.146Z,3.40
2019-02-09T04:42:30.081Z,3.22
2019-02-09T04:43:07.193Z,3.05
2019-02-09T04:43:45.048Z,3.70
2019-02-09T04:44:23.049Z,3.12
2019-02-09T04:45:00.816Z,3.20
2019-02-09T04:45:38.697Z,3.10
2019-02-09T04:46:16.084Z,3.05
2019-02-09T04:46:53.772Z,3.33
2019-02-09T04:47:30.940Z,3.40
2019-02-09T04:48:09.243Z,2.98
2019-02-09T04:48:46.349Z,2.95
2019-02-09T04:49:23.685Z,3.17
2019-02-09T04:50:01.059Z,3.17
2019-02-09T04:50:38.334Z,3.10
2019-02-09T04:51:16.025Z,2.62
2019-02-09T04:51:53.703Z,2.90
2019-02-09T04:52:31.427Z,3.20
2019-02-09T04:53:08.537Z,3.27
2019-02-09T04:53:46.135Z,3.35
2019-02-09T04:54:23.616Z,3.08
2019-02-09T04:55:00.719Z,3.15
2019-02-09T04:55:37.674Z,3.40
2019-02-09T04:56:15.077Z,2.75
2019-02-09T04:56:52.959Z,2.85
2019-02-09T04:57:30.943Z,3.30
2019-02-09T04:58:08.617Z,3.00
2019-02-09T04:58:45.763Z,3.30
2019-02-09T04:59:23.575Z,2.87
2019-02-09T05:00:01.346Z,2.92
2019-02-09T05:00:38.434Z,3.52
2019-02-09T05:01:15.771Z,2.90
2019-02-09T05:01:53.701Z,2.75
2019-02-09T05:02:31.466Z,2.92
2019-02-09T05:03:09.558Z,3.20
2019-02-09T05:03:46.920Z,2.87
2019-02-09T05:04:24.653Z,3.37
2019-02-09T05:05:02.494Z,3.35
2019-02-09T05:05:40.639Z,3.25
2019-02-09T05:06:18.377Z,2.33
2019-02-09T05:06:56.196Z,2.90
2019-02-09T05:07:33.898Z,2.60
2019-02-09T05:08:11.235Z,3.37
2019-02-09T05:08:48.495Z,2.92
2019-02-09T05:09:26.213Z,2.90
2019-02-09T05:10:04.393Z,3.25
2019-02-09T05:10:41.754Z,2.60
2019-02-09T05:11:19.473Z,3.35
2019-02-09T05:11:56.809Z,3.42
2019-02-09T05:12:34.227Z,2.55
2019-02-09T05:13:11.552Z,2.62
2019-02-09T05:13:49.032Z,3.30
2019-02-09T05:14:26.403Z,2.58
2019-02-09T05:15:03.923Z,2.62
2019-02-09T05:15:41.271Z,3.20
2019-02-09T05:16:19.170Z,3.00
2019-02-09T05:16:56.300Z,3.02
2019-02-09T05:17:40.201Z,2.35
2019-02-09T05:18:17.871Z,3.10
2019-02-09T05:18:55.747Z,2.95
2019-02-09T05:19:33.721Z,2.58
2019-02-09T05:20:14.536Z,2.70
2019-02-09T05:20:51.923Z,2.60
2019-02-09T05:21:32.293Z,2.47
2019-02-09T05:22:10.489Z,2.90
2019-02-09T05:22:48.381Z,2.90
2019-02-09T05:23:26.104Z,2.80
2019-02-09T05:24:03.081Z,2.40
2019-02-09T05:24:40.097Z,2.75
2019-02-09T05:25:18.147Z,3.40
2019-02-09T05:25:56.221Z,3.00
2019-02-09T05:26:33.600Z,2.60
2019-02-09T05:27:10.840Z,3.30
2019-02-09T05:27:49.199Z,2.25
2019-02-09T05:28:27.122Z,2.75
2019-02-09T05:29:04.814Z,2.60
2019-02-09T05:29:42.817Z,2.72
2019-02-09T05:30:23.139Z,2.50
2019-02-09T05:31:00.627Z,2.72
2019-02-09T05:31:38.474Z,2.60
2019-02-09T05:32:15.680Z,2.65
2019-02-09T05:32:54.058Z,2.70
2019-02-09T05:33:31.790Z,2.98
2019-02-09T05:34:09.644Z,2.75
2019-02-09T05:34:47.150Z,2.00
2019-02-09T05:35:25.468Z,2.52
2019-02-09T05:36:02.704Z,3.05
2019-02-09T05:36:40.587Z,2.83
2019-02-09T05:37:17.969Z,3.08
2019-02-09T05:37:55.692Z,2.90
2019-02-09T05:38:33.353Z,2.35
2019-02-09T05:39:10.771Z,3.85
2019-02-09T05:39:48.953Z,3.22
2019-02-09T05:40:26.740Z,2.65
2019-02-09T05:41:03.954Z,3.10
2019-02-09T05:41:41.550Z,3.15
2019-02-09T05:42:19.195Z,2.65
2019-02-09T05:42:57.260Z,3.15
2019-02-09T05:43:35.311Z,2.85
2019-02-09T05:44:12.914Z,2.52
2019-02-09T05:44:50.407Z,2.85
2019-02-09T05:45:29.273Z,2.83
2019-02-09T05:46:07.479Z,2.62
2019-02-09T05:46:45.060Z,2.75
2019-02-09T05:47:22.471Z,2.90
2019-02-09T05:47:59.936Z,2.52
2019-02-09T05:48:37.399Z,2.50
2019-02-09T05:49:14.771Z,2.90
2019-02-09T05:49:51.431Z,2.52
2019-02-09T05:50:47.752Z,4.10
2019-02-09T05:51:25.432Z,3.05
2019-02-09T05:52:03.135Z,3.02
2019-02-09T05:52:40.615Z,3.05
2019-02-09T05:53:18.091Z,3.02
2019-02-09T05:53:55.158Z,2.80
2019-02-09T05:54:32.947Z,2.85
2019-02-09T05:55:11.174Z,3.50
2019-02-09T05:55:48.197Z,2.80
2019-02-09T05:56:25.896Z,3.22
2019-02-09T05:57:03.905Z,3.40
2019-02-09T05:57:41.455Z,2.40
2019-02-09T05:58:19.173Z,3.08
2019-02-09T05:58:56.838Z,2.92
2019-02-09T05:59:34.200Z,3.27
2019-02-09T06:00:34.567Z,2.77
2019-02-09T06:01:12.251Z,3.30
2019-02-09T06:01:50.095Z,2.37
2019-02-09T06:02:27.749Z,2.70
2019-02-09T06:03:05.668Z,2.72
2019-02-09T06:03:43.625Z,2.77
2019-02-09T06:04:21.487Z,2.92
2019-02-09T06:04:59.196Z,2.52
2019-02-09T06:05:37.429Z,3.00
2019-02-09T06:06:14.821Z,3.20
2019-02-09T06:06:52.793Z,2.60
2019-02-09T06:07:30.478Z,2.30
2019-02-09T06:08:07.883Z,2.70
2019-02-09T06:08:45.553Z,2.60
2019-02-09T06:09:23.526Z,2.60
2019-02-09T06:10:00.905Z,2.87
2019-02-09T06:10:38.299Z,3.05
2019-02-09T06:11:15.653Z,2.45
2019-02-09T06:11:53.584Z,2.87
2019-02-09T06:12:31.531Z,2.65
2019-02-09T06:13:09.523Z,2.60
2019-02-09T06:13:47.412Z,2.70
2019-02-09T06:14:25.121Z,2.98
2019-02-09T06:15:02.576Z,2.35
2019-02-09T06:15:40.376Z,2.87
2019-02-09T06:16:17.371Z,2.70
2019-02-09T06:16:54.709Z,2.65
2019-02-09T06:17:32.596Z,2.72
2019-02-09T06:18:09.996Z,2.90
2019-02-09T06:18:47.753Z,2.90
2019-02-09T06:19:25.236Z,2.50
2019-02-09T06:20:02.612Z,2.60
2019-02-09T06:20:40.395Z,2.98
2019-02-09T06:21:17.873Z,2.60
2019-02-09T06:21:55.147Z,3.15
2019-02-09T06:22:33.037Z,2.95
2019-02-09T06:23:10.432Z,3.08
2019-02-09T06:23:48.501Z,2.52
2019-02-09T06:24:26.494Z,2.58
2019-02-09T06:25:04.752Z,2.35
2019-02-09T06:25:42.954Z,2.90
2019-02-09T06:26:19.996Z,2.50
2019-02-09T06:26:57.620Z,2.02
2019-02-09T06:27:35.242Z,2.60
2019-02-09T06:28:12.394Z,2.60
2019-02-09T06:28:49.783Z,2.80
2019-02-09T06:29:27.081Z,2.50
2019-02-09T06:30:05.957Z,2.27
2019-02-09T06:30:43.244Z,2.30
2019-02-09T06:31:20.951Z,2.95
2019-02-09T06:31:58.617Z,2.92
2019-02-09T06:32:56.045Z,2.60
2019-02-09T06:33:34.144Z,2.40
2019-02-09T06:34:11.782Z,2.60
2019-02-09T06:34:49.141Z,2.65
2019-02-09T06:35:26.976Z,2.50
2019-02-09T06:36:04.372Z,2.52
2019-02-09T06:36:41.732Z,2.60
2019-02-09T06:37:19.719Z,2.92
2019-02-09T06:37:57.405Z,2.40
2019-02-09T06:38:35.187Z,2.42
2019-02-09T06:39:12.713Z,2.55
2019-02-09T06:39:49.996Z,2.75
2019-02-09T06:40:27.549Z,2.87
2019-02-09T06:41:04.715Z,2.75
2019-02-09T06:41:42.102Z,2.70
2019-02-09T06:42:19.140Z,2.30
2019-02-09T06:42:56.968Z,3.05
2019-02-09T06:43:34.814Z,2.62
2019-02-09T06:44:12.809Z,2.37
2019-02-09T06:44:50.520Z,2.98
2019-02-09T06:45:28.170Z,2.92
2019-02-09T06:46:06.159Z,2.60
2019-02-09T06:46:43.841Z,2.98
2019-02-09T06:47:22.550Z,2.75
2019-02-09T06:48:22.251Z,2.72
2019-02-09T06:48:59.949Z,2.83
2019-02-09T06:49:37.888Z,3.22
2019-02-09T06:50:17.947Z,2.83
2019-02-09T06:51:04.472Z,2.60
2019-02-09T06:51:47.971Z,2.83
2019-02-09T06:52:25.758Z,2.45
2019-02-09T06:53:03.550Z,3.37
2019-02-09T06:53:40.847Z,2.67
2019-02-09T06:54:18.535Z,3.45
2019-02-09T06:54:56.462Z,2.67
2019-02-09T06:55:34.105Z,2.47
2019-02-09T06:56:11.755Z,2.55
2019-02-09T06:56:49.548Z,3.08
2019-02-09T06:57:27.198Z,2.83
2019-02-09T06:58:04.679Z,2.65
2019-02-09T06:58:42.302Z,2.75
2019-02-09T06:59:19.682Z,3.30
2019-02-09T06:59:57.373Z,3.00
2019-02-09T07:00:35.010Z,3.00
2019-02-09T07:01:12.829Z,2.90
2019-02-09T07:01:50.495Z,2.60
2019-02-09T07:02:28.200Z,2.98
2019-02-09T07:03:06.248Z,2.90
2019-02-09T07:03:44.006Z,3.67
2019-02-09T07:04:21.363Z,3.45
2019-02-09T07:04:59.239Z,3.00
2019-02-09T07:05:36.293Z,3.33
2019-02-09T07:06:14.325Z,3.20
2019-02-09T07:06:51.599Z,3.27
2019-02-09T07:07:29.512Z,3.02
2019-02-09T07:08:07.689Z,2.85
2019-02-09T07:08:45.327Z,3.35
2019-02-09T07:09:23.428Z,2.55
2019-02-09T07:10:00.740Z,2.98
2019-02-09T07:10:38.551Z,2.52
2019-02-09T07:11:16.574Z,2.90
2019-02-09T07:11:54.051Z,2.40
2019-02-09T07:12:31.911Z,2.92
2019-02-09T07:13:09.975Z,2.70
2019-02-09T07:13:47.312Z,3.30
2019-02-09T07:14:24.376Z,3.20
2019-02-09T07:15:01.979Z,3.10
2019-02-09T07:15:40.028Z,2.70
2019-02-09T07:16:18.272Z,2.95
2019-02-09T07:16:56.059Z,2.62
2019-02-09T07:17:33.410Z,2.60
2019-02-09T07:18:11.407Z,2.70
2019-02-09T07:18:48.987Z,2.83
2019-02-09T07:19:26.766Z,3.60
2019-02-09T07:20:05.652Z,2.85
2019-02-09T07:20:42.791Z,3.02
2019-02-09T07:21:20.452Z,3.40
2019-02-09T07:21:58.145Z,3.95
2019-02-09T07:22:34.788Z,2.92
2019-02-09T07:23:11.495Z,2.70
2019-02-09T07:23:48.910Z,2.80
2019-02-09T07:24:26.600Z,2.87
2019-02-09T07:25:05.120Z,2.60
2019-02-09T07:25:43.227Z,3.05
2019-02-09T07:26:20.691Z,2.65
2019-02-09T07:26:58.376Z,3.50
2019-02-09T07:27:36.361Z,2.90
2019-02-09T07:28:13.553Z,2.98
2019-02-09T07:28:50.896Z,2.75
2019-02-09T07:29:28.702Z,3.17
2019-02-09T07:30:09.988Z,2.65
2019-02-09T07:30:47.356Z,2.30
2019-02-09T07:31:25.434Z,2.90
2019-02-09T07:32:03.488Z,2.42
2019-02-09T07:32:41.292Z,2.65
2019-02-09T07:33:19.274Z,2.92
2019-02-09T07:33:57.299Z,3.40
2019-02-09T07:34:35.385Z,2.40
2019-02-09T07:35:13.147Z,2.60
2019-02-09T07:35:50.900Z,2.85
2019-02-09T07:36:28.876Z,2.80
2019-02-09T07:37:06.408Z,2.40
2019-02-09T07:37:44.740Z,2.72
2019-02-09T07:38:22.092Z,3.00
2019-02-09T07:38:59.844Z,2.60
2019-02-09T07:39:37.896Z,3.12
2019-02-09T07:40:18.628Z,2.67
2019-02-09T07:40:56.619Z,2.90
2019-02-09T07:41:33.880Z,3.27
2019-02-09T07:42:11.677Z,3.25
2019-02-09T07:42:49.359Z,2.62
2019-02-09T07:43:26.005Z,2.77
2019-02-09T07:44:03.386Z,2.27
2019-02-09T07:44:40.927Z,2.85
2019-02-09T07:45:20.387Z,3.30
2019-02-09T07:45:59.680Z,2.83
2019-02-09T07:46:37.307Z,2.50
2019-02-09T07:47:14.672Z,3.00
2019-02-09T07:47:52.471Z,2.35
2019-02-09T07:48:30.342Z,2.58
2019-02-09T07:49:07.842Z,2.77
2019-02-09T07:49:44.894Z,2.50
2019-02-09T07:50:23.905Z,3.12
2019-02-09T07:51:02.038Z,2.62
2019-02-09T07:51:39.508Z,2.77
2019-02-09T07:52:17.080Z,2.72
2019-02-09T07:52:54.656Z,3.10
2019-02-09T07:53:32.270Z,2.95
2019-02-09T07:54:09.800Z,2.85
2019-02-09T07:54:47.592Z,2.85
2019-02-09T07:55:25.754Z,2.50
2019-02-09T07:56:02.804Z,2.40
2019-02-09T07:56:40.820Z,2.80
2019-02-09T07:57:22.306Z,2.62
2019-02-09T07:58:00.339Z,2.58
2019-02-09T07:58:40.891Z,2.20
2019-02-09T07:59:18.699Z,3.42
2019-02-09T07:59:56.858Z,2.65
2019-02-09T08:00:35.245Z,2.35
2019-02-09T08:01:12.596Z,2.65
2019-02-09T08:01:50.350Z,2.80
2019-02-09T08:02:28.154Z,2.90
2019-02-09T08:03:07.020Z,2.40
2019-02-09T08:03:45.127Z,2.67
2019-02-09T08:04:22.792Z,2.90
2019-02-09T08:05:00.817Z,2.80
2019-02-09T08:05:38.918Z,2.72
2019-02-09T08:06:35.796Z,2.65
2019-02-09T08:07:13.671Z,2.62
2019-02-09T08:07:51.580Z,2.90
2019-02-09T08:08:28.956Z,3.12
2019-02-09T08:09:11.436Z,3.00
2019-02-09T08:09:48.944Z,2.85
2019-02-09T08:10:28.015Z,3.25
2019-02-09T08:11:09.224Z,3.80
2019-02-09T08:11:45.134Z,2.85
2019-02-09T08:12:23.272Z,2.77
2019-02-09T08:13:00.964Z,2.67
2019-02-09T08:13:38.396Z,3.17
2019-02-09T08:14:16.392Z,2.75
2019-02-09T08:14:54.307Z,2.83
2019-02-09T08:15:32.592Z,2.60
2019-02-09T08:16:10.600Z,2.67
2019-02-09T08:16:48.106Z,2.70
2019-02-09T08:17:26.213Z,2.58
2019-02-09T08:18:05.586Z,2.75
2019-02-09T08:18:43.216Z,2.55
2019-02-09T08:19:20.552Z,2.70
2019-02-09T08:19:58.231Z,2.83
2019-02-09T08:20:38.986Z,2.60
2019-02-09T08:21:16.763Z,3.27
2019-02-09T08:21:55.671Z,3.37
2019-02-09T08:22:33.240Z,3.20
2019-02-09T08:23:10.924Z,2.75
2019-02-09T08:23:48.226Z,3.05
2019-02-09T08:24:26.470Z,2.40
2019-02-09T08:25:04.280Z,2.65
2019-02-09T08:25:42.288Z,2.90
2019-02-09T08:26:19.858Z,2.60